.
WxDataArchive / Data Records for 2010-05-14
2010-05-13 May 2010 2010-05-15

Data Records for Friday, 14 May 2010

Time	Temp	Chill	HIndex	Humid	Dewpt	 Wind 	HiWind	WindDir	Rain 	Barom 
-----	----	-----	------	-----	-----	------	------	-------	-----	----- 
00:00	67.4	67.4	67.4	86	63.1	0	0	---	0.00	29.988 
00:05	67.1	67.1	67.1	86	62.8	0	1	248	0.00	29.988 
00:10	66.9	66.9	66.9	87	62.9	0	0	---	0.00	29.988 
00:15	66.6	66.6	66.6	87	62.6	0	0	---	0.00	29.978 
00:20	66.3	66.3	66.3	88	62.6	0	0	---	0.00	29.978 
00:25	66.0	66.0	66.0	88	62.3	0	0	---	0.00	29.978 
00:30	65.6	65.6	65.6	89	62.3	0	0	---	0.00	29.994 
00:35	65.3	65.3	65.3	89	62.0	0	0	---	0.00	29.994 
00:40	65.2	65.2	65.2	90	62.2	0	0	---	0.00	29.994 
00:45	65.0	65.0	65.0	90	62.0	0	0	---	0.00	30.005 
00:50	64.8	64.8	64.8	91	62.1	0	0	---	0.01	30.005 
00:55	65.0	65.0	65.0	91	62.3	0	0	---	0.00	30.005 
01:00	65.0	65.0	65.0	92	62.6	0	0	---	0.00	30.009 
01:05	65.0	65.0	65.0	92	62.6	0	0	---	0.00	30.009 
01:10	65.2	65.2	65.2	92	62.8	0	1	248	0.00	30.009 
01:15	65.2	65.2	65.2	92	62.8	0	1	248	0.00	30.006 
01:20	65.2	65.2	65.2	93	63.1	0	1	248	0.00	30.006 
01:25	65.3	65.3	65.3	93	63.2	0	3	248	0.00	30.006 
01:30	65.3	65.3	65.3	93	63.2	0	2	248	0.00	30.024 
01:35	65.3	65.3	65.3	93	63.2	0	2	248	0.00	30.024 
01:40	65.3	65.3	65.3	93	63.2	0	3	248	0.00	30.024 
01:45	65.5	65.5	65.5	93	63.4	1	3	248	0.00	30.030 
01:50	65.5	65.5	65.5	93	63.4	1	3	248	0.00	30.030 
01:55	65.5	65.5	65.5	93	63.4	0	3	248	0.00	30.030 
02:00	65.5	65.5	65.5	93	63.4	0	2	248	0.01	30.030 
02:05	65.5	65.5	65.5	93	63.4	0	2	248	0.00	30.030 
02:10	65.5	65.5	65.5	93	63.4	1	2	248	0.00	30.030 
02:15	65.3	65.3	65.3	93	63.2	1	4	248	0.00	30.032 
02:20	65.3	65.3	65.3	93	63.2	1	3	248	0.00	30.032 
02:25	65.3	65.3	65.3	93	63.2	1	3	270	0.00	30.032 
02:30	65.3	65.3	65.3	93	63.2	1	2	270	0.00	30.031 
02:35	65.3	65.3	65.3	93	63.2	1	3	270	0.00	30.031 
02:40	65.3	65.3	65.3	93	63.2	1	3	270	0.00	30.031 
02:45	65.3	65.3	65.3	93	63.2	2	4	270	0.01	30.032 
02:50	65.3	65.3	65.3	93	63.2	1	2	270	0.01	30.032 
02:55	65.2	65.2	65.2	92	62.8	1	3	270	0.00	30.032 
03:00	65.2	65.2	65.2	93	63.1	1	4	225	0.00	30.035 
03:05	65.0	65.0	65.0	93	62.9	0	0	---	0.00	30.035 
03:10	64.8	64.8	64.8	93	62.7	1	3	225	0.00	30.035 
03:15	64.7	64.7	64.7	93	62.6	1	3	225	0.00	30.043 
03:20	64.5	64.5	64.5	92	62.1	1	5	315	0.00	30.043 
03:25	64.3	64.3	64.3	92	61.9	1	3	270	0.00	30.043 
03:30	64.2	64.2	64.2	92	61.8	2	5	270	0.00	30.044 
03:35	64.2	64.2	64.2	91	61.5	3	5	292	0.00	30.044 
03:40	64.0	64.0	64.0	90	61.0	2	5	292	0.00	30.044 
03:45	64.0	64.0	64.0	89	60.7	2	5	270	0.00	30.041 
03:50	64.0	64.0	64.0	88	60.4	2	4	270	0.00	30.041 
03:55	64.0	64.0	64.0	88	60.4	1	4	315	0.00	30.041 
04:00	63.9	63.9	63.9	88	60.3	1	6	270	0.00	30.044 
04:05	63.7	63.7	63.7	87	59.8	3	6	270	0.00	30.044 
04:10	63.7	63.7	63.7	86	59.4	2	5	292	0.00	30.044 
04:15	63.7	63.7	63.7	86	59.4	1	5	270	0.00	30.058 
04:20	63.5	63.5	63.5	86	59.2	2	5	270	0.00	30.058 
04:25	63.4	63.4	63.4	86	59.1	2	5	270	0.00	30.058 
04:30	63.4	63.4	63.4	86	59.1	3	5	270	0.00	30.059 
04:35	63.2	63.2	63.2	86	58.9	2	5	270	0.00	30.059 
04:40	62.4	62.4	62.4	84	57.5	3	5	315	0.00	30.059 
04:45	61.6	61.6	61.6	84	56.7	3	9	248	0.00	30.068 
04:50	61.2	61.2	61.2	84	56.3	2	4	315	0.00	30.068 
04:55	60.7	60.7	60.7	84	55.8	2	6	315	0.00	30.068 
05:00	60.5	60.5	60.5	84	55.6	2	5	315	0.00	30.081 
05:05	60.4	60.4	60.4	84	55.5	1	5	315	0.00	30.081 
05:10	60.1	60.1	60.1	84	55.2	2	5	315	0.00	30.081 
05:15	59.9	59.9	59.9	84	55.0	2	5	270	0.00	30.091 
05:20	59.9	59.9	59.9	84	55.0	2	4	270	0.00	30.091 
05:25	59.3	59.3	59.3	83	54.1	2	7	270	0.00	30.091 
05:30	58.9	58.9	58.9	81	53.1	2	4	315	0.00	30.090 
05:35	58.4	58.4	58.4	80	52.3	2	6	315	0.00	30.090 
05:40	58.3	58.3	58.3	80	52.2	1	5	292	0.00	30.090 
05:45	57.8	57.8	57.8	79	51.3	2	5	315	0.00	30.098 
05:50	57.6	57.6	57.6	79	51.1	2	4	292	0.00	30.098 
05:55	57.3	57.3	57.3	78	50.5	2	4	292	0.00	30.098 
06:00	57.2	57.2	57.2	77	50.1	1	4	292	0.00	30.107 
06:05	57.0	57.0	57.0	76	49.5	1	3	292	0.00	30.107 
06:10	56.9	56.9	56.9	76	49.4	1	4	338	0.00	30.107 
06:15	56.7	56.7	56.7	75	48.9	1	2	315	0.00	30.118 
06:20	56.7	56.7	56.7	75	48.9	1	4	315	0.00	30.118 
06:25	56.6	56.6	56.6	75	48.8	0	1	315	0.00	30.118 
06:30	56.5	56.5	56.5	75	48.7	1	3	315	0.00	30.125 
06:35	56.3	56.3	56.3	76	48.8	1	2	338	0.00	30.125 
06:40	56.2	56.2	56.2	77	49.1	0	1	338	0.00	30.125 
06:45	56.0	56.0	56.0	78	49.2	0	2	338	0.00	30.130 
06:50	55.9	55.9	55.9	79	49.5	1	3	292	0.00	30.130 
06:55	55.7	55.7	55.7	79	49.3	1	3	338	0.00	30.130 
07:00	55.7	55.7	55.7	79	49.3	1	3	338	0.00	30.125 
07:05	55.7	55.7	55.7	79	49.3	1	3	338	0.00	30.125 
07:10	55.7	55.7	55.7	80	49.6	1	3	338	0.00	30.125 
07:15	55.6	55.6	55.6	79	49.2	2	4	292	0.00	30.139 
07:20	55.7	55.7	55.7	78	48.9	3	5	270	0.00	30.139 
07:25	55.7	55.7	55.7	77	48.6	2	4	270	0.00	30.139 
07:30	55.9	55.9	55.9	76	48.4	2	5	270	0.00	30.145 
07:35	55.9	55.9	55.9	76	48.4	1	4	315	0.00	30.145 
07:40	56.0	56.0	56.0	76	48.5	2	5	270	0.00	30.145 
07:45	56.2	56.2	56.2	75	48.4	1	5	292	0.00	30.150 
07:50	56.3	56.3	56.3	75	48.5	2	4	315	0.00	30.150 
07:55	56.5	56.5	56.5	75	48.7	2	5	270	0.00	30.150 
08:00	56.5	56.5	56.5	75	48.7	2	5	315	0.00	30.148 
08:05	56.6	56.6	56.6	75	48.8	3	5	270	0.00	30.148 
08:10	56.7	56.7	56.7	75	48.9	2	5	315	0.00	30.148 
08:15	56.9	56.9	56.9	73	48.3	3	7	292	0.00	30.152 
08:20	56.7	56.7	56.7	73	48.1	2	4	292	0.00	30.152 
08:25	56.7	56.7	56.7	72	47.8	2	6	270	0.00	30.152 
08:30	56.6	56.6	56.6	73	48.0	2	4	315	0.00	30.164 
08:35	56.7	56.7	56.7	73	48.1	2	5	248	0.00	30.164 
08:40	56.6	56.6	56.6	72	47.7	2	5	338	0.00	30.164 
08:45	56.6	56.6	56.6	70	46.9	2	4	338	0.00	30.168 
08:50	57.2	57.2	57.2	72	48.3	1	3	338	0.00	30.168 
08:55	57.3	57.3	57.3	69	47.2	2	5	338	0.00	30.168 
09:00	57.2	57.2	57.2	68	46.7	1	3	338	0.00	30.172 
09:05	57.6	57.6	57.6	67	46.7	1	4	270	0.00	30.172 
09:10	58.1	58.1	58.1	67	47.2	1	3	338	0.00	30.172 
09:15	58.3	58.3	58.3	67	47.4	2	4	338	0.00	30.171 
09:20	58.4	58.4	58.4	68	47.9	1	3	270	0.00	30.171 
09:25	58.7	58.7	58.7	65	47.0	2	5	248	0.00	30.171 
09:30	58.7	58.7	58.7	63	46.1	2	5	248	0.00	30.177 
09:35	58.9	58.9	58.9	63	46.3	2	5	315	0.00	30.177 
09:40	59.2	59.2	59.2	61	45.8	2	4	315	0.00	30.177 
09:45	59.2	59.2	59.2	61	45.8	2	5	292	0.00	30.168 
09:50	59.0	59.0	59.0	58	44.2	2	6	292	0.00	30.168 
09:55	59.3	59.3	59.3	61	45.8	2	4	270	0.00	30.168 
10:00	59.3	59.3	59.3	57	44.1	2	4	248	0.00	30.168 
10:05	59.3	59.3	59.3	60	45.4	2	4	338	0.00	30.168 
10:10	59.6	59.6	59.6	57	44.3	2	4	248	0.00	30.168 
10:15	59.8	59.8	59.8	57	44.5	2	5	270	0.00	30.169 
10:20	60.1	60.1	60.1	55	43.9	1	3	315	0.00	30.169 
10:25	60.1	60.1	60.1	55	43.9	2	5	315	0.00	30.169 
10:30	60.1	60.1	60.1	54	43.4	2	5	225	0.00	30.166 
10:35	60.2	60.2	60.2	55	44.0	2	4	315	0.00	30.166 
10:40	60.7	60.7	60.7	54	44.0	2	4	248	0.00	30.166 
10:45	60.5	60.5	60.5	54	43.8	2	6	270	0.00	30.167 
10:50	60.9	60.9	60.9	54	44.1	2	4	270	0.00	30.167 
10:55	60.9	60.9	60.9	54	44.1	2	4	270	0.00	30.167 
11:00	61.3	61.3	61.3	51	43.0	2	5	248	0.00	30.169 
11:05	61.5	61.5	61.5	53	44.2	3	5	270	0.00	30.169 
11:10	61.3	61.3	61.3	52	43.5	2	4	292	0.00	30.169 
11:15	61.8	61.8	61.8	56	45.9	2	5	248	0.00	30.187 
11:20	62.3	62.3	62.3	54	45.4	1	3	202	0.00	30.187 
11:25	62.4	62.4	62.4	53	45.0	2	4	270	0.00	30.187 
11:30	62.6	62.6	62.6	54	45.7	2	5	292	0.00	30.187 
11:35	62.7	62.7	62.7	51	44.3	2	7	270	0.00	30.187 
11:40	62.7	62.7	62.7	51	44.3	3	5	270	0.00	30.187 
11:45	62.6	62.6	62.6	51	44.2	2	5	270	0.00	30.186 
11:50	62.9	62.9	62.9	51	44.5	3	7	248	0.00	30.186 
11:55	62.7	62.7	62.7	52	44.8	3	5	270	0.00	30.186 
12:00	63.2	63.2	63.2	52	45.3	2	6	270	0.00	30.187 
12:05	63.5	63.5	63.5	50	44.5	3	7	248	0.00	30.187 
12:10	63.7	63.7	63.7	54	46.7	2	6	270	0.00	30.187 
12:15	63.5	63.5	63.5	52	45.6	3	5	270	0.00	30.192 
12:20	63.9	63.9	63.9	54	46.9	2	5	270	0.00	30.192 
12:25	64.0	64.0	64.0	49	44.5	3	9	248	0.00	30.192 
12:30	64.0	64.0	64.0	48	43.9	3	7	270	0.00	30.190 
12:35	64.2	64.2	64.2	49	44.6	3	7	292	0.00	30.190 
12:40	64.5	64.5	64.5	54	47.5	2	9	248	0.00	30.190 
12:45	65.0	65.0	65.0	49	45.4	3	6	248	0.00	30.192 
12:50	65.0	65.0	65.0	51	46.4	2	6	292	0.00	30.192 
12:55	65.2	65.2	65.2	50	46.1	2	4	248	0.00	30.192 
13:00	65.0	65.0	65.0	47	44.3	3	5	248	0.00	30.191 
13:05	65.0	65.0	65.0	50	45.9	2	5	270	0.00	30.191 
13:10	65.5	65.5	65.5	49	45.8	2	6	270	0.00	30.191 
13:15	65.5	65.5	65.5	49	45.8	2	5	270	0.00	30.188 
13:20	66.0	66.0	66.0	47	45.2	3	5	292	0.00	30.188 
13:25	66.1	66.1	66.1	49	46.4	2	4	292	0.00	30.188 
13:30	66.1	66.1	66.1	49	46.4	3	5	292	0.00	30.183 
13:35	66.1	66.1	66.1	48	45.8	3	7	270	0.00	30.183 
13:40	66.1	66.1	66.1	46	44.7	3	7	270	0.00	30.183 
13:45	66.1	66.1	66.1	47	45.3	3	5	270	0.00	30.179 
13:50	66.6	66.6	66.6	47	45.7	3	6	248	0.00	30.179 
13:55	66.4	66.4	66.4	47	45.5	3	6	292	0.00	30.179 
14:00	66.4	66.4	66.4	47	45.5	3	6	248	0.00	30.171 
14:05	66.9	66.9	66.9	45	44.9	3	9	270	0.00	30.171 
14:10	67.3	67.3	67.3	46	45.8	3	6	270	0.00	30.171 
14:15	67.3	67.3	67.3	45	45.2	3	6	270	0.00	30.167 
14:20	67.3	67.3	67.3	48	46.9	3	5	270	0.00	30.167 
14:25	67.6	67.6	67.6	47	46.6	2	4	270	0.00	30.167 
14:30	67.9	67.9	67.9	45	45.8	2	6	270	0.00	30.167 
14:35	68.3	68.3	68.3	44	45.5	2	5	248	0.00	30.167 
14:40	68.3	68.3	68.3	45	46.1	3	6	315	0.00	30.167 
14:45	68.1	68.1	68.1	45	45.9	4	6	270	0.00	30.166 
14:50	68.4	68.4	68.4	44	45.6	3	5	270	0.00	30.166 
14:55	68.4	68.4	68.4	45	46.2	3	6	270	0.00	30.166 
15:00	68.6	68.6	68.6	45	46.4	3	5	270	0.00	30.165 
15:05	68.6	68.6	68.6	45	46.4	3	6	270	0.00	30.165 
15:10	69.1	69.1	69.1	48	48.6	2	6	270	0.00	30.165 
15:15	69.4	69.4	69.4	45	47.1	3	6	270	0.00	30.164 
15:20	68.9	68.9	68.9	43	45.5	4	8	270	0.00	30.164 
15:25	68.9	68.9	68.9	43	45.5	4	9	270	0.00	30.164 
15:30	68.4	68.4	68.4	44	45.6	4	6	270	0.00	30.167 
15:35	68.4	68.4	68.4	43	45.0	4	11	292	0.00	30.167 
15:40	68.4	68.4	68.4	43	45.0	4	6	270	0.00	30.167 
15:45	68.9	68.9	68.9	44	46.1	3	6	248	0.00	30.166 
15:50	69.1	69.1	69.1	43	45.7	4	7	338	0.00	30.166 
15:55	68.8	68.8	68.8	42	44.8	4	9	292	0.00	30.166 
16:00	68.6	68.6	68.6	41	44.0	4	9	270	0.00	30.166 
16:05	68.9	68.9	68.9	42	44.9	3	5	270	0.00	30.166 
16:10	69.3	69.3	69.3	43	45.8	3	6	315	0.00	30.166 
16:15	69.1	69.1	69.1	43	45.7	3	7	248	0.00	30.156 
16:20	69.4	69.4	69.4	43	45.9	2	7	248	0.00	30.156 
16:25	69.4	69.4	69.4	41	44.7	4	7	270	0.00	30.156 
16:30	69.4	69.4	69.4	43	45.9	4	7	248	0.00	30.154 
16:35	68.9	68.9	68.9	44	46.1	4	7	270	0.00	30.154 
16:40	68.9	68.9	68.9	46	47.3	3	7	292	0.00	30.154 
16:45	68.8	68.8	68.8	43	45.4	4	7	270	0.00	30.152 
16:50	68.8	68.8	68.8	45	46.6	3	7	292	0.00	30.152 
16:55	68.8	68.8	68.8	43	45.4	4	7	270	0.00	30.152 
17:00	68.6	68.6	68.6	43	45.2	4	6	270	0.00	30.143 
17:05	68.9	68.9	68.9	46	47.3	3	6	248	0.00	30.143 
17:10	68.9	68.9	68.9	44	46.1	3	11	270	0.00	30.143 
17:15	69.1	69.1	69.1	44	46.3	2	6	270	0.00	30.143 
17:20	69.4	69.4	69.4	44	46.5	2	6	248	0.00	30.143 
17:25	69.3	69.3	69.3	45	47.0	3	6	248	0.00	30.143 
17:30	68.9	68.9	68.9	44	46.1	4	10	270	0.00	30.140 
17:35	68.8	68.8	68.8	45	46.6	4	10	270	0.00	30.140 
17:40	69.1	69.1	69.1	47	48.0	1	5	248	0.00	30.140 
17:45	69.1	69.1	69.1	47	48.0	3	7	315	0.00	30.139 
17:50	69.3	69.3	69.3	44	46.4	2	5	248	0.00	30.139 
17:55	69.3	69.3	69.3	41	44.6	4	8	270	0.00	30.139 
18:00	69.1	69.1	69.1	42	45.0	3	7	248	0.00	30.142 
18:05	68.8	68.8	68.8	42	44.8	3	6	270	0.00	30.142 
18:10	68.3	68.3	68.3	43	44.9	4	7	270	0.00	30.142 
18:15	68.1	68.1	68.1	43	44.7	3	7	292	0.00	30.148 
18:20	68.3	68.3	68.3	43	44.9	3	6	248	0.00	30.148 
18:25	68.1	68.1	68.1	43	44.7	3	5	292	0.00	30.148 
18:30	68.1	68.1	68.1	44	45.4	2	6	248	0.00	30.143 
18:35	68.1	68.1	68.1	43	44.7	3	5	248	0.00	30.143 
18:40	68.1	68.1	68.1	44	45.4	2	6	338	0.00	30.143 
18:45	67.9	67.9	67.9	44	45.2	2	6	270	0.00	30.158 
18:50	67.9	67.9	67.9	44	45.2	2	4	270	0.00	30.158 
18:55	67.9	67.9	67.9	42	44.0	2	5	270	0.00	30.158 
19:00	67.6	67.6	67.6	41	43.1	3	6	315	0.00	30.151 
19:05	67.3	67.3	67.3	42	43.4	3	6	270	0.00	30.151 
19:10	67.3	67.3	67.3	44	44.6	2	5	248	0.00	30.151 
19:15	67.1	67.1	67.1	45	45.0	3	7	270	0.00	30.148 
19:20	66.9	66.9	66.9	44	44.3	3	7	270	0.00	30.148 
19:25	66.8	66.8	66.8	44	44.2	2	5	315	0.00	30.148 
19:30	66.6	66.6	66.6	43	43.4	2	6	270	0.00	30.147 
19:35	66.4	66.4	66.4	45	44.4	1	3	292	0.00	30.147 
19:40	66.1	66.1	66.1	44	43.5	2	6	270	0.00	30.147 
19:45	66.0	66.0	66.0	46	44.6	2	4	338	0.00	30.149 
19:50	65.6	65.6	65.6	46	44.3	1	6	338	0.00	30.149 
19:55	65.5	65.5	65.5	45	43.6	3	5	292	0.00	30.149 
20:00	65.2	65.2	65.2	45	43.3	2	5	270	0.00	30.156 
20:05	64.8	64.8	64.8	46	43.5	2	5	270	0.00	30.156 
20:10	64.7	64.7	64.7	48	44.6	1	3	270	0.00	30.156 
20:15	64.3	64.3	64.3	48	44.2	2	4	270	0.00	30.169 
20:20	64.0	64.0	64.0	49	44.5	1	4	292	0.00	30.169 
20:25	63.9	63.9	63.9	49	44.4	1	4	292	0.00	30.169 
20:30	63.7	63.7	63.7	49	44.2	1	3	315	0.00	30.175 
20:35	63.7	63.7	63.7	49	44.2	2	5	270	0.00	30.175 
20:40	63.4	63.4	63.4	49	43.9	1	3	315	0.00	30.175 
20:45	63.2	63.2	63.2	50	44.2	1	3	315	0.00	30.180 
20:50	63.1	63.1	63.1	50	44.2	1	3	315	0.00	30.180 
20:55	62.7	62.7	62.7	51	44.3	1	3	315	0.00	30.180 
21:00	62.4	62.4	62.4	51	44.0	0	2	315	0.00	30.182 
21:05	62.1	62.1	62.1	52	44.3	0	1	315	0.00	30.182 
21:10	61.8	61.8	61.8	53	44.5	0	1	315	0.00	30.182 
21:15	61.5	61.5	61.5	54	44.7	0	1	315	0.00	30.178 
21:20	61.2	61.2	61.2	54	44.4	0	0	---	0.00	30.178 
21:25	60.9	60.9	60.9	56	45.1	0	0	---	0.00	30.178 
21:30	60.4	60.4	60.4	57	45.1	0	0	---	0.00	30.190 
21:35	59.9	59.9	59.9	58	45.1	0	0	---	0.00	30.190 
21:40	59.6	59.6	59.6	58	44.8	0	0	---	0.00	30.190 
21:45	59.2	59.2	59.2	59	44.9	0	0	---	0.00	30.192 
21:50	58.7	58.7	58.7	60	44.8	0	0	---	0.00	30.192 
21:55	58.3	58.3	58.3	61	44.9	0	0	---	0.00	30.192 
22:00	57.8	57.8	57.8	62	44.9	0	0	---	0.00	30.195 
22:05	57.5	57.5	57.5	64	45.4	0	0	---	0.00	30.195 
22:10	56.9	56.9	56.9	66	45.7	0	0	---	0.00	30.195 
22:15	56.3	56.3	56.3	68	45.9	0	0	---	0.00	30.202 
22:20	56.0	56.0	56.0	69	46.0	0	0	---	0.00	30.202 
22:25	55.7	55.7	55.7	70	46.1	0	0	---	0.00	30.202 
22:30	55.6	55.6	55.6	70	46.0	0	0	---	0.00	30.212 
22:35	55.4	55.4	55.4	71	46.2	0	0	---	0.00	30.212 
22:40	55.1	55.1	55.1	72	46.2	0	0	---	0.00	30.212 
22:45	55.0	55.0	55.0	73	46.5	0	0	---	0.00	30.212 
22:50	54.8	54.8	54.8	73	46.3	0	0	---	0.00	30.212 
22:55	54.5	54.5	54.5	74	46.4	0	0	---	0.00	30.212 
23:00	54.4	54.4	54.4	74	46.3	0	0	---	0.00	30.216 
23:05	54.1	54.1	54.1	75	46.4	0	0	---	0.00	30.216 
23:10	53.9	53.9	53.9	75	46.2	0	0	---	0.00	30.216 
23:15	53.6	53.6	53.6	77	46.6	0	0	---	0.00	30.214 
23:20	53.3	53.3	53.3	77	46.3	0	0	---	0.00	30.214 
23:25	53.1	53.1	53.1	78	46.4	0	0	---	0.00	30.214 
23:30	52.8	52.8	52.8	79	46.5	0	0	---	0.00	30.212 
23:35	52.5	52.5	52.5	80	46.5	0	0	---	0.00	30.212 
23:40	52.3	52.3	52.3	81	46.6	0	0	---	0.00	30.212 
23:45	52.0	52.0	52.0	81	46.4	0	0	---	0.00	30.217 
23:50	51.9	51.9	51.9	82	46.6	0	0	---	0.00	30.217 
23:55	51.6	51.6	51.6	82	46.3	0	0	---	0.00	30.217 

CoCoRaHS
IN-AL-39
A2 Web Hosting
Creative Commons License
GoDaddy
search engine by freefind advanced

loaded 2018-11-13 01:31:17 • last modified 2010-11-18 10:43:29
Privacy PolicyDisclaimer
• wx.awcolley.com is powered by PmWiki v.2002016 •
• all content (unless otherwise noted) © 2018 A W Colley